Whiteman AFB, Missouri
Current Conditions -  °F | °C
As of 11:33 PM on Sunday 21 Dec 2014 (Local Time) from KSZL Reporting Station
Overcast Overcast  
Wind Chill: 37°   Ceiling: 2900
Heat Index: 43°   Visibility: 10mi
Dew Point: 36°   Wind: 10mph
Humidity: 76%   Direction: 170°S
Pressure: 29.8"   Gusts: NA
Location:  38.73°N, 93.55°W
Report Text: KSZL 220533Z AUTO 17009KT 10SM OVC029 06/02 A2980 RMK AO2
Loading
Personal Weather Stations






























Interactive Weather Map New forecast layout! Learn more

10-Day Weather Forecast

Advertisements
Track Severe Weather on mobile